sensor_id;sensor_type;location;lat;lon;timestamp;P1;durP1;ratioP1;P2;durP2;ratioP2
18596;SDS011;9428;50.950;6.912;2023-09-19T00:01:59;5.40;;;1.77;;
18596;SDS011;9428;50.950;6.912;2023-09-19T00:04:47;4.95;;;1.83;;
18596;SDS011;9428;50.950;6.912;2023-09-19T00:07:35;3.10;;;1.75;;
18596;SDS011;9428;50.950;6.912;2023-09-19T00:10:22;5.18;;;1.90;;
18596;SDS011;9428;50.950;6.912;2023-09-19T00:13:10;7.47;;;2.03;;
18596;SDS011;9428;50.950;6.912;2023-09-19T00:15:59;3.80;;;1.75;;
18596;SDS011;9428;50.950;6.912;2023-09-19T00:18:46;5.20;;;2.00;;
18596;SDS011;9428;50.950;6.912;2023-09-19T00:21:36;4.25;;;1.58;;
18596;SDS011;9428;50.950;6.912;2023-09-19T00:24:23;4.50;;;1.65;;
18596;SDS011;9428;50.950;6.912;2023-09-19T00:27:11;5.05;;;2.10;;
18596;SDS011;9428;50.950;6.912;2023-09-19T00:29:58;7.47;;;2.08;;
18596;SDS011;9428;50.950;6.912;2023-09-19T00:32:45;7.10;;;2.05;;
18596;SDS011;9428;50.950;6.912;2023-09-19T00:35:34;7.68;;;2.10;;
18596;SDS011;9428;50.950;6.912;2023-09-19T00:38:23;7.15;;;1.85;;
18596;SDS011;9428;50.950;6.912;2023-09-19T00:41:12;8.00;;;1.88;;
18596;SDS011;9428;50.950;6.912;2023-09-19T00:43:59;8.05;;;2.10;;
18596;SDS011;9428;50.950;6.912;2023-09-19T00:46:47;8.63;;;2.20;;
18596;SDS011;9428;50.950;6.912;2023-09-19T00:49:35;7.57;;;1.83;;
18596;SDS011;9428;50.950;6.912;2023-09-19T00:52:23;10.02;;;2.10;;
18596;SDS011;9428;50.950;6.912;2023-09-19T00:55:12;5.18;;;2.30;;
18596;SDS011;9428;50.950;6.912;2023-09-19T00:58:04;4.57;;;2.10;;
18596;SDS011;9428;50.950;6.912;2023-09-19T01:00:52;9.00;;;2.22;;
18596;SDS011;9428;50.950;6.912;2023-09-19T01:03:41;3.83;;;1.90;;
18596;SDS011;9428;50.950;6.912;2023-09-19T01:06:28;8.35;;;2.70;;
18596;SDS011;9428;50.950;6.912;2023-09-19T01:09:17;8.73;;;1.92;;
18596;SDS011;9428;50.950;6.912;2023-09-19T01:12:06;5.68;;;1.98;;
18596;SDS011;9428;50.950;6.912;2023-09-19T01:14:58;9.88;;;2.10;;
18596;SDS011;9428;50.950;6.912;2023-09-19T01:17:52;12.60;;;2.40;;
18596;SDS011;9428;50.950;6.912;2023-09-19T01:20:50;7.32;;;1.90;;
18596;SDS011;9428;50.950;6.912;2023-09-19T01:23:50;6.22;;;2.30;;
18596;SDS011;9428;50.950;6.912;2023-09-19T01:30:24;7.57;;;1.98;;
18596;SDS011;9428;50.950;6.912;2023-09-19T01:33:14;8.38;;;2.03;;
18596;SDS011;9428;50.950;6.912;2023-09-19T01:36:04;5.95;;;2.28;;
18596;SDS011;9428;50.950;6.912;2023-09-19T01:38:51;8.05;;;2.03;;
18596;SDS011;9428;50.950;6.912;2023-09-19T01:44:49;8.20;;;2.05;;
18596;SDS011;9428;50.950;6.912;2023-09-19T01:47:43;4.43;;;1.90;;
18596;SDS011;9428;50.950;6.912;2023-09-19T01:50:38;15.48;;;1.85;;
18596;SDS011;9428;50.950;6.912;2023-09-19T01:53:33;7.18;;;2.30;;
18596;SDS011;9428;50.950;6.912;2023-09-19T01:56:28;9.77;;;3.00;;
18596;SDS011;9428;50.950;6.912;2023-09-19T01:59:21;8.43;;;1.58;;
18596;SDS011;9428;50.950;6.912;2023-09-19T02:02:12;6.47;;;1.80;;
18596;SDS011;9428;50.950;6.912;2023-09-19T02:05:03;9.32;;;2.17;;
18596;SDS011;9428;50.950;6.912;2023-09-19T02:07:51;8.70;;;2.63;;
18596;SDS011;9428;50.950;6.912;2023-09-19T02:10:39;7.13;;;2.05;;
18596;SDS011;9428;50.950;6.912;2023-09-19T02:13:26;6.72;;;2.05;;
18596;SDS011;9428;50.950;6.912;2023-09-19T02:16:16;7.88;;;2.20;;
18596;SDS011;9428;50.950;6.912;2023-09-19T02:19:06;7.32;;;1.85;;
18596;SDS011;9428;50.950;6.912;2023-09-19T02:21:55;9.00;;;1.85;;
18596;SDS011;9428;50.950;6.912;2023-09-19T02:24:42;6.15;;;2.20;;
18596;SDS011;9428;50.950;6.912;2023-09-19T02:27:29;9.80;;;2.00;;
18596;SDS011;9428;50.950;6.912;2023-09-19T02:30:16;4.93;;;1.75;;
18596;SDS011;9428;50.950;6.912;2023-09-19T02:33:05;10.52;;;2.38;;
18596;SDS011;9428;50.950;6.912;2023-09-19T02:35:54;9.18;;;2.22;;
18596;SDS011;9428;50.950;6.912;2023-09-19T02:38:45;7.03;;;2.10;;
18596;SDS011;9428;50.950;6.912;2023-09-19T02:41:32;10.43;;;2.72;;
18596;SDS011;9428;50.950;6.912;2023-09-19T02:44:19;10.23;;;1.95;;
18596;SDS011;9428;50.950;6.912;2023-09-19T02:47:09;10.02;;;2.45;;
18596;SDS011;9428;50.950;6.912;2023-09-19T02:49:56;7.88;;;2.03;;
18596;SDS011;9428;50.950;6.912;2023-09-19T02:52:44;8.65;;;2.40;;
18596;SDS011;9428;50.950;6.912;2023-09-19T02:55:35;6.95;;;2.15;;
18596;SDS011;9428;50.950;6.912;2023-09-19T02:58:23;9.85;;;2.20;;
18596;SDS011;9428;50.950;6.912;2023-09-19T03:01:13;7.97;;;2.45;;
18596;SDS011;9428;50.950;6.912;2023-09-19T03:04:00;9.32;;;2.28;;
18596;SDS011;9428;50.950;6.912;2023-09-19T03:06:48;11.43;;;2.47;;
18596;SDS011;9428;50.950;6.912;2023-09-19T03:09:36;8.07;;;2.00;;
18596;SDS011;9428;50.950;6.912;2023-09-19T03:12:25;11.60;;;2.25;;
18596;SDS011;9428;50.950;6.912;2023-09-19T03:15:12;5.15;;;1.88;;
18596;SDS011;9428;50.950;6.912;2023-09-19T03:18:00;11.23;;;2.63;;
18596;SDS011;9428;50.950;6.912;2023-09-19T03:20:52;15.52;;;2.35;;
18596;SDS011;9428;50.950;6.912;2023-09-19T03:23:40;10.40;;;2.00;;
18596;SDS011;9428;50.950;6.912;2023-09-19T03:26:28;7.57;;;2.17;;
18596;SDS011;9428;50.950;6.912;2023-09-19T03:29:17;9.18;;;2.70;;
18596;SDS011;9428;50.950;6.912;2023-09-19T03:32:05;5.35;;;2.15;;
18596;SDS011;9428;50.950;6.912;2023-09-19T03:34:52;9.15;;;2.50;;
18596;SDS011;9428;50.950;6.912;2023-09-19T03:37:40;9.43;;;1.90;;
18596;SDS011;9428;50.950;6.912;2023-09-19T03:40:27;7.25;;;1.95;;
18596;SDS011;9428;50.950;6.912;2023-09-19T03:43:14;12.05;;;2.30;;
18596;SDS011;9428;50.950;6.912;2023-09-19T03:46:04;7.65;;;1.95;;
18596;SDS011;9428;50.950;6.912;2023-09-19T03:48:52;7.35;;;1.70;;
18596;SDS011;9428;50.950;6.912;2023-09-19T03:51:39;9.93;;;1.98;;
18596;SDS011;9428;50.950;6.912;2023-09-19T03:54:27;10.30;;;2.22;;
18596;SDS011;9428;50.950;6.912;2023-09-19T03:57:14;6.47;;;2.33;;
18596;SDS011;9428;50.950;6.912;2023-09-19T04:00:07;10.50;;;2.25;;
18596;SDS011;9428;50.950;6.912;2023-09-19T04:02:58;7.07;;;2.20;;
18596;SDS011;9428;50.950;6.912;2023-09-19T04:05:47;5.72;;;1.88;;
18596;SDS011;9428;50.950;6.912;2023-09-19T04:08:34;7.32;;;2.35;;
18596;SDS011;9428;50.950;6.912;2023-09-19T04:11:22;14.77;;;2.65;;
18596;SDS011;9428;50.950;6.912;2023-09-19T04:14:09;10.57;;;2.33;;
18596;SDS011;9428;50.950;6.912;2023-09-19T04:16:56;5.65;;;1.85;;
18596;SDS011;9428;50.950;6.912;2023-09-19T04:19:45;8.93;;;2.13;;
18596;SDS011;9428;50.950;6.912;2023-09-19T04:22:32;11.82;;;2.42;;
18596;SDS011;9428;50.950;6.912;2023-09-19T04:25:19;7.97;;;2.72;;
18596;SDS011;9428;50.950;6.912;2023-09-19T04:28:06;12.07;;;2.65;;
18596;SDS011;9428;50.950;6.912;2023-09-19T04:30:55;7.75;;;1.80;;
18596;SDS011;9428;50.950;6.912;2023-09-19T04:33:44;5.80;;;2.35;;
18596;SDS011;9428;50.950;6.912;2023-09-19T04:36:32;11.38;;;2.92;;
18596;SDS011;9428;50.950;6.912;2023-09-19T04:39:20;8.55;;;2.28;;
18596;SDS011;9428;50.950;6.912;2023-09-19T04:42:12;12.57;;;2.22;;
18596;SDS011;9428;50.950;6.912;2023-09-19T04:45:00;6.97;;;1.90;;
18596;SDS011;9428;50.950;6.912;2023-09-19T04:47:48;6.78;;;2.38;;
18596;SDS011;9428;50.950;6.912;2023-09-19T04:50:36;9.07;;;2.25;;
18596;SDS011;9428;50.950;6.912;2023-09-19T04:53:25;11.90;;;2.72;;
18596;SDS011;9428;50.950;6.912;2023-09-19T04:56:13;10.80;;;2.63;;
18596;SDS011;9428;50.950;6.912;2023-09-19T04:59:00;5.45;;;2.05;;
18596;SDS011;9428;50.950;6.912;2023-09-19T05:01:48;14.18;;;2.78;;
18596;SDS011;9428;50.950;6.912;2023-09-19T05:04:35;9.90;;;2.35;;
18596;SDS011;9428;50.950;6.912;2023-09-19T05:07:22;11.38;;;2.17;;
18596;SDS011;9428;50.950;6.912;2023-09-19T05:10:12;13.85;;;2.67;;
18596;SDS011;9428;50.950;6.912;2023-09-19T05:13:01;7.40;;;1.85;;
18596;SDS011;9428;50.950;6.912;2023-09-19T05:15:50;8.80;;;2.03;;
18596;SDS011;9428;50.950;6.912;2023-09-19T05:18:38;10.30;;;2.30;;
18596;SDS011;9428;50.950;6.912;2023-09-19T05:21:25;7.80;;;2.20;;
18596;SDS011;9428;50.950;6.912;2023-09-19T05:24:14;7.47;;;2.47;;
18596;SDS011;9428;50.950;6.912;2023-09-19T05:27:03;6.78;;;2.13;;
18596;SDS011;9428;50.950;6.912;2023-09-19T05:29:53;15.95;;;2.20;;
18596;SDS011;9428;50.950;6.912;2023-09-19T05:32:41;8.23;;;2.03;;
18596;SDS011;9428;50.950;6.912;2023-09-19T05:35:29;11.23;;;2.45;;
18596;SDS011;9428;50.950;6.912;2023-09-19T05:38:16;9.02;;;2.08;;
18596;SDS011;9428;50.950;6.912;2023-09-19T05:41:05;9.93;;;2.40;;
18596;SDS011;9428;50.950;6.912;2023-09-19T05:43:54;12.27;;;2.55;;
18596;SDS011;9428;50.950;6.912;2023-09-19T05:46:42;11.50;;;2.08;;
18596;SDS011;9428;50.950;6.912;2023-09-19T05:49:30;11.15;;;2.70;;
18596;SDS011;9428;50.950;6.912;2023-09-19T05:52:18;11.48;;;2.35;;
18596;SDS011;9428;50.950;6.912;2023-09-19T05:55:07;8.18;;;2.65;;
18596;SDS011;9428;50.950;6.912;2023-09-19T05:57:56;10.05;;;2.13;;
18596;SDS011;9428;50.950;6.912;2023-09-19T06:00:44;6.43;;;1.92;;
18596;SDS011;9428;50.950;6.912;2023-09-19T06:03:34;8.68;;;2.25;;
18596;SDS011;9428;50.950;6.912;2023-09-19T06:06:21;7.72;;;2.50;;
18596;SDS011;9428;50.950;6.912;2023-09-19T06:09:09;12.13;;;2.97;;
18596;SDS011;9428;50.950;6.912;2023-09-19T06:11:56;12.43;;;2.47;;
18596;SDS011;9428;50.950;6.912;2023-09-19T06:14:45;8.73;;;2.35;;
18596;SDS011;9428;50.950;6.912;2023-09-19T06:17:35;10.07;;;2.00;;
18596;SDS011;9428;50.950;6.912;2023-09-19T06:20:23;7.25;;;1.83;;
18596;SDS011;9428;50.950;6.912;2023-09-19T06:23:13;16.95;;;2.92;;
18596;SDS011;9428;50.950;6.912;2023-09-19T06:26:01;11.95;;;2.67;;
18596;SDS011;9428;50.950;6.912;2023-09-19T06:28:48;11.02;;;2.70;;
18596;SDS011;9428;50.950;6.912;2023-09-19T06:31:38;11.65;;;2.58;;
18596;SDS011;9428;50.950;6.912;2023-09-19T06:34:27;13.82;;;2.65;;
18596;SDS011;9428;50.950;6.912;2023-09-19T06:37:14;9.68;;;2.28;;
18596;SDS011;9428;50.950;6.912;2023-09-19T06:40:01;5.93;;;2.10;;
18596;SDS011;9428;50.950;6.912;2023-09-19T06:42:51;11.80;;;2.53;;
18596;SDS011;9428;50.950;6.912;2023-09-19T06:45:39;15.20;;;3.25;;
18596;SDS011;9428;50.950;6.912;2023-09-19T06:48:26;8.27;;;2.20;;
18596;SDS011;9428;50.950;6.912;2023-09-19T06:51:17;10.50;;;2.97;;
18596;SDS011;9428;50.950;6.912;2023-09-19T06:54:05;16.77;;;3.25;;
18596;SDS011;9428;50.950;6.912;2023-09-19T06:56:52;13.43;;;2.25;;
18596;SDS011;9428;50.950;6.912;2023-09-19T06:59:40;15.93;;;2.63;;
18596;SDS011;9428;50.950;6.912;2023-09-19T07:02:27;10.10;;;2.25;;
18596;SDS011;9428;50.950;6.912;2023-09-19T07:05:14;9.88;;;2.55;;
18596;SDS011;9428;50.950;6.912;2023-09-19T07:08:05;6.50;;;2.08;;
18596;SDS011;9428;50.950;6.912;2023-09-19T07:10:53;10.90;;;2.50;;
18596;SDS011;9428;50.950;6.912;2023-09-19T07:13:43;9.80;;;2.42;;
18596;SDS011;9428;50.950;6.912;2023-09-19T07:16:30;12.45;;;2.42;;
18596;SDS011;9428;50.950;6.912;2023-09-19T07:19:17;6.38;;;2.20;;
18596;SDS011;9428;50.950;6.912;2023-09-19T07:22:05;9.55;;;2.63;;
18596;SDS011;9428;50.950;6.912;2023-09-19T07:24:54;13.30;;;2.50;;
18596;SDS011;9428;50.950;6.912;2023-09-19T07:27:41;13.30;;;2.65;;
18596;SDS011;9428;50.950;6.912;2023-09-19T07:30:29;11.02;;;2.38;;
18596;SDS011;9428;50.950;6.912;2023-09-19T07:33:16;11.05;;;2.17;;
18596;SDS011;9428;50.950;6.912;2023-09-19T07:36:03;8.68;;;2.72;;
18596;SDS011;9428;50.950;6.912;2023-09-19T07:38:51;13.60;;;2.33;;
18596;SDS011;9428;50.950;6.912;2023-09-19T07:41:41;11.63;;;2.22;;
18596;SDS011;9428;50.950;6.912;2023-09-19T07:44:28;9.20;;;2.83;;
18596;SDS011;9428;50.950;6.912;2023-09-19T07:47:17;7.32;;;2.67;;
18596;SDS011;9428;50.950;6.912;2023-09-19T07:50:04;5.90;;;2.45;;
18596;SDS011;9428;50.950;6.912;2023-09-19T07:52:53;9.90;;;2.22;;
18596;SDS011;9428;50.950;6.912;2023-09-19T07:55:41;9.02;;;2.85;;
18596;SDS011;9428;50.950;6.912;2023-09-19T07:58:34;10.10;;;2.28;;
18596;SDS011;9428;50.950;6.912;2023-09-19T08:01:23;12.98;;;3.13;;
18596;SDS011;9428;50.950;6.912;2023-09-19T08:04:12;8.15;;;2.42;;
18596;SDS011;9428;50.950;6.912;2023-09-19T08:06:59;7.85;;;2.08;;
18596;SDS011;9428;50.950;6.912;2023-09-19T08:09:49;10.35;;;2.92;;
18596;SDS011;9428;50.950;6.912;2023-09-19T08:12:36;12.30;;;2.35;;
18596;SDS011;9428;50.950;6.912;2023-09-19T08:15:32;9.40;;;2.30;;
18596;SDS011;9428;50.950;6.912;2023-09-19T08:18:20;10.95;;;2.53;;
18596;SDS011;9428;50.950;6.912;2023-09-19T08:21:08;11.38;;;2.75;;
18596;SDS011;9428;50.950;6.912;2023-09-19T08:23:56;15.02;;;2.90;;
18596;SDS011;9428;50.950;6.912;2023-09-19T08:26:43;11.52;;;2.75;;
18596;SDS011;9428;50.950;6.912;2023-09-19T08:29:32;9.25;;;2.60;;
18596;SDS011;9428;50.950;6.912;2023-09-19T08:32:20;8.00;;;2.20;;
18596;SDS011;9428;50.950;6.912;2023-09-19T08:35:10;9.18;;;2.55;;
18596;SDS011;9428;50.950;6.912;2023-09-19T08:37:57;11.80;;;2.55;;
18596;SDS011;9428;50.950;6.912;2023-09-19T08:40:46;10.75;;;2.03;;
18596;SDS011;9428;50.950;6.912;2023-09-19T08:43:33;8.27;;;2.65;;
18596;SDS011;9428;50.950;6.912;2023-09-19T08:46:20;12.63;;;2.47;;
18596;SDS011;9428;50.950;6.912;2023-09-19T08:49:16;7.55;;;2.25;;
18596;SDS011;9428;50.950;6.912;2023-09-19T08:52:16;5.88;;;2.03;;
18596;SDS011;9428;50.950;6.912;2023-09-19T08:55:11;12.18;;;2.38;;
18596;SDS011;9428;50.950;6.912;2023-09-19T08:58:06;15.10;;;2.10;;
18596;SDS011;9428;50.950;6.912;2023-09-19T09:00:58;5.60;;;1.70;;
18596;SDS011;9428;50.950;6.912;2023-09-19T09:03:46;12.45;;;2.35;;
18596;SDS011;9428;50.950;6.912;2023-09-19T09:06:37;9.07;;;2.42;;
18596;SDS011;9428;50.950;6.912;2023-09-19T09:09:25;11.85;;;2.63;;
18596;SDS011;9428;50.950;6.912;2023-09-19T09:12:13;12.70;;;2.25;;
18596;SDS011;9428;50.950;6.912;2023-09-19T09:15:01;10.52;;;2.00;;
18596;SDS011;9428;50.950;6.912;2023-09-19T09:17:49;8.57;;;2.47;;
18596;SDS011;9428;50.950;6.912;2023-09-19T09:20:38;9.05;;;2.30;;
18596;SDS011;9428;50.950;6.912;2023-09-19T09:23:27;7.13;;;2.15;;
18596;SDS011;9428;50.950;6.912;2023-09-19T09:26:15;7.75;;;1.90;;
18596;SDS011;9428;50.950;6.912;2023-09-19T09:29:02;5.22;;;1.60;;
18596;SDS011;9428;50.950;6.912;2023-09-19T09:31:49;7.20;;;2.13;;
18596;SDS011;9428;50.950;6.912;2023-09-19T09:34:37;8.85;;;2.25;;
18596;SDS011;9428;50.950;6.912;2023-09-19T09:37:25;6.63;;;1.80;;
18596;SDS011;9428;50.950;6.912;2023-09-19T09:40:17;6.95;;;1.88;;
18596;SDS011;9428;50.950;6.912;2023-09-19T09:43:25;7.65;;;2.53;;
18596;SDS011;9428;50.950;6.912;2023-09-19T09:46:14;5.63;;;1.92;;
18596;SDS011;9428;50.950;6.912;2023-09-19T09:49:22;8.38;;;2.00;;
18596;SDS011;9428;50.950;6.912;2023-09-19T09:52:12;8.93;;;2.45;;
18596;SDS011;9428;50.950;6.912;2023-09-19T09:55:02;9.88;;;3.28;;
18596;SDS011;9428;50.950;6.912;2023-09-19T09:57:53;6.63;;;2.42;;
18596;SDS011;9428;50.950;6.912;2023-09-19T10:01:03;6.05;;;2.05;;
18596;SDS011;9428;50.950;6.912;2023-09-19T10:03:56;8.45;;;2.00;;
18596;SDS011;9428;50.950;6.912;2023-09-19T10:06:45;8.32;;;1.83;;
18596;SDS011;9428;50.950;6.912;2023-09-19T10:09:44;5.22;;;1.83;;
18596;SDS011;9428;50.950;6.912;2023-09-19T10:12:32;5.75;;;1.77;;
18596;SDS011;9428;50.950;6.912;2023-09-19T10:15:22;6.80;;;2.03;;
18596;SDS011;9428;50.950;6.912;2023-09-19T10:18:16;6.53;;;1.88;;
18596;SDS011;9428;50.950;6.912;2023-09-19T10:21:06;5.80;;;1.90;;
18596;SDS011;9428;50.950;6.912;2023-09-19T10:23:56;5.15;;;1.73;;
18596;SDS011;9428;50.950;6.912;2023-09-19T10:26:45;5.50;;;2.47;;
18596;SDS011;9428;50.950;6.912;2023-09-19T10:29:36;7.63;;;2.60;;
18596;SDS011;9428;50.950;6.912;2023-09-19T10:32:27;4.00;;;2.15;;
18596;SDS011;9428;50.950;6.912;2023-09-19T10:35:18;8.43;;;1.90;;
18596;SDS011;9428;50.950;6.912;2023-09-19T10:38:06;5.10;;;1.95;;
18596;SDS011;9428;50.950;6.912;2023-09-19T10:40:56;7.63;;;2.35;;
18596;SDS011;9428;50.950;6.912;2023-09-19T10:43:45;5.57;;;2.08;;
18596;SDS011;9428;50.950;6.912;2023-09-19T10:46:34;4.82;;;2.08;;
18596;SDS011;9428;50.950;6.912;2023-09-19T10:49:25;6.65;;;1.80;;
18596;SDS011;9428;50.950;6.912;2023-09-19T10:52:13;6.90;;;1.92;;
18596;SDS011;9428;50.950;6.912;2023-09-19T10:55:05;8.93;;;1.77;;
18596;SDS011;9428;50.950;6.912;2023-09-19T10:57:55;5.88;;;1.63;;
18596;SDS011;9428;50.950;6.912;2023-09-19T11:00:53;5.07;;;2.00;;
18596;SDS011;9428;50.950;6.912;2023-09-19T11:03:40;3.63;;;1.63;;
18596;SDS011;9428;50.950;6.912;2023-09-19T11:06:31;8.93;;;2.10;;
18596;SDS011;9428;50.950;6.912;2023-09-19T11:09:19;4.95;;;2.10;;
18596;SDS011;9428;50.950;6.912;2023-09-19T11:12:11;6.97;;;1.88;;
18596;SDS011;9428;50.950;6.912;2023-09-19T11:14:59;6.65;;;2.13;;
18596;SDS011;9428;50.950;6.912;2023-09-19T11:17:49;5.97;;;1.88;;
18596;SDS011;9428;50.950;6.912;2023-09-19T11:20:37;5.78;;;1.67;;
18596;SDS011;9428;50.950;6.912;2023-09-19T11:23:38;5.18;;;1.67;;
18596;SDS011;9428;50.950;6.912;2023-09-19T11:26:39;7.32;;;2.08;;
18596;SDS011;9428;50.950;6.912;2023-09-19T11:29:29;5.97;;;1.98;;
18596;SDS011;9428;50.950;6.912;2023-09-19T11:32:17;5.18;;;1.88;;
18596;SDS011;9428;50.950;6.912;2023-09-19T11:36:06;5.13;;;1.60;;
18596;SDS011;9428;50.950;6.912;2023-09-19T11:39:00;5.75;;;2.10;;
18596;SDS011;9428;50.950;6.912;2023-09-19T11:42:00;4.57;;;2.17;;
18596;SDS011;9428;50.950;6.912;2023-09-19T11:44:48;6.22;;;2.20;;
18596;SDS011;9428;50.950;6.912;2023-09-19T11:47:37;6.47;;;2.17;;
18596;SDS011;9428;50.950;6.912;2023-09-19T11:50:25;6.43;;;2.13;;
18596;SDS011;9428;50.950;6.912;2023-09-19T11:53:13;6.72;;;2.50;;
18596;SDS011;9428;50.950;6.912;2023-09-19T11:56:05;6.43;;;1.85;;
18596;SDS011;9428;50.950;6.912;2023-09-19T11:58:56;4.97;;;1.88;;
18596;SDS011;9428;50.950;6.912;2023-09-19T12:01:51;5.60;;;1.80;;
18596;SDS011;9428;50.950;6.912;2023-09-19T12:04:43;5.53;;;1.83;;
18596;SDS011;9428;50.950;6.912;2023-09-19T12:07:42;7.50;;;2.03;;
18596;SDS011;9428;50.950;6.912;2023-09-19T12:10:33;5.95;;;1.77;;
18596;SDS011;9428;50.950;6.912;2023-09-19T12:13:31;6.45;;;1.88;;
18596;SDS011;9428;50.950;6.912;2023-09-19T12:16:22;5.13;;;1.73;;
18596;SDS011;9428;50.950;6.912;2023-09-19T12:19:19;5.65;;;2.00;;
18596;SDS011;9428;50.950;6.912;2023-09-19T12:22:07;7.22;;;1.85;;
18596;SDS011;9428;50.950;6.912;2023-09-19T12:25:02;5.47;;;1.70;;
18596;SDS011;9428;50.950;6.912;2023-09-19T12:27:53;5.88;;;1.75;;
18596;SDS011;9428;50.950;6.912;2023-09-19T12:30:42;8.15;;;1.83;;
18596;SDS011;9428;50.950;6.912;2023-09-19T12:33:30;3.58;;;2.03;;
18596;SDS011;9428;50.950;6.912;2023-09-19T12:36:19;7.30;;;1.77;;
18596;SDS011;9428;50.950;6.912;2023-09-19T12:39:10;5.43;;;1.85;;
18596;SDS011;9428;50.950;6.912;2023-09-19T12:41:59;6.28;;;1.80;;
18596;SDS011;9428;50.950;6.912;2023-09-19T12:44:50;4.97;;;1.73;;
18596;SDS011;9428;50.950;6.912;2023-09-19T12:47:45;5.53;;;1.60;;
18596;SDS011;9428;50.950;6.912;2023-09-19T12:51:06;6.05;;;1.80;;
18596;SDS011;9428;50.950;6.912;2023-09-19T12:53:57;4.70;;;1.80;;
18596;SDS011;9428;50.950;6.912;2023-09-19T12:56:44;5.35;;;1.55;;
18596;SDS011;9428;50.950;6.912;2023-09-19T12:59:34;3.90;;;1.50;;
18596;SDS011;9428;50.950;6.912;2023-09-19T13:02:23;4.40;;;1.95;;
18596;SDS011;9428;50.950;6.912;2023-09-19T13:05:12;3.00;;;1.50;;
18596;SDS011;9428;50.950;6.912;2023-09-19T13:08:04;4.53;;;1.38;;
18596;SDS011;9428;50.950;6.912;2023-09-19T13:11:06;6.13;;;2.17;;
18596;SDS011;9428;50.950;6.912;2023-09-19T13:14:13;6.00;;;1.58;;
18596;SDS011;9428;50.950;6.912;2023-09-19T13:17:02;3.53;;;1.70;;
18596;SDS011;9428;50.950;6.912;2023-09-19T13:19:51;5.65;;;2.00;;
18596;SDS011;9428;50.950;6.912;2023-09-19T13:22:43;5.03;;;1.85;;
18596;SDS011;9428;50.950;6.912;2023-09-19T13:25:35;4.47;;;1.30;;
18596;SDS011;9428;50.950;6.912;2023-09-19T13:28:22;3.55;;;1.33;;
18596;SDS011;9428;50.950;6.912;2023-09-19T13:31:09;5.40;;;1.50;;
18596;SDS011;9428;50.950;6.912;2023-09-19T13:33:57;3.03;;;1.38;;
18596;SDS011;9428;50.950;6.912;2023-09-19T13:36:44;3.35;;;1.50;;
18596;SDS011;9428;50.950;6.912;2023-09-19T13:39:35;4.93;;;1.50;;
18596;SDS011;9428;50.950;6.912;2023-09-19T13:42:27;4.53;;;1.35;;
18596;SDS011;9428;50.950;6.912;2023-09-19T13:45:15;5.10;;;1.70;;
18596;SDS011;9428;50.950;6.912;2023-09-19T13:48:04;3.42;;;1.30;;
18596;SDS011;9428;50.950;6.912;2023-09-19T13:50:51;3.35;;;1.55;;
18596;SDS011;9428;50.950;6.912;2023-09-19T13:53:38;4.28;;;1.52;;
18596;SDS011;9428;50.950;6.912;2023-09-19T13:56:27;4.07;;;1.45;;
18596;SDS011;9428;50.950;6.912;2023-09-19T13:59:16;4.00;;;1.17;;
18596;SDS011;9428;50.950;6.912;2023-09-19T14:02:03;4.57;;;1.20;;
18596;SDS011;9428;50.950;6.912;2023-09-19T14:04:51;3.00;;;1.40;;
18596;SDS011;9428;50.950;6.912;2023-09-19T14:07:39;3.78;;;1.35;;
18596;SDS011;9428;50.950;6.912;2023-09-19T14:10:26;3.10;;;1.08;;
18596;SDS011;9428;50.950;6.912;2023-09-19T14:13:17;3.13;;;1.05;;
18596;SDS011;9428;50.950;6.912;2023-09-19T14:16:06;5.47;;;1.20;;
18596;SDS011;9428;50.950;6.912;2023-09-19T14:18:54;4.90;;;1.52;;
18596;SDS011;9428;50.950;6.912;2023-09-19T14:21:41;2.55;;;1.08;;
18596;SDS011;9428;50.950;6.912;2023-09-19T14:24:29;4.95;;;1.20;;
18596;SDS011;9428;50.950;6.912;2023-09-19T14:27:16;2.03;;;1.00;;
18596;SDS011;9428;50.950;6.912;2023-09-19T14:30:05;2.58;;;1.20;;
18596;SDS011;9428;50.950;6.912;2023-09-19T14:32:54;2.33;;;0.90;;
18596;SDS011;9428;50.950;6.912;2023-09-19T14:35:43;3.25;;;1.08;;
18596;SDS011;9428;50.950;6.912;2023-09-19T14:38:30;5.38;;;1.33;;
18596;SDS011;9428;50.950;6.912;2023-09-19T14:41:18;4.35;;;1.08;;
18596;SDS011;9428;50.950;6.912;2023-09-19T14:44:06;4.90;;;1.30;;
18596;SDS011;9428;50.950;6.912;2023-09-19T14:46:55;1.65;;;0.93;;
18596;SDS011;9428;50.950;6.912;2023-09-19T14:49:42;3.80;;;1.17;;
18596;SDS011;9428;50.950;6.912;2023-09-19T14:52:30;4.85;;;1.30;;
18596;SDS011;9428;50.950;6.912;2023-09-19T14:55:17;6.10;;;1.52;;
18596;SDS011;9428;50.950;6.912;2023-09-19T14:58:08;2.08;;;1.10;;
18596;SDS011;9428;50.950;6.912;2023-09-19T15:01:02;3.97;;;1.23;;
18596;SDS011;9428;50.950;6.912;2023-09-19T15:03:51;3.05;;;1.00;;
18596;SDS011;9428;50.950;6.912;2023-09-19T15:06:40;2.70;;;1.00;;
18596;SDS011;9428;50.950;6.912;2023-09-19T15:09:27;4.45;;;1.42;;
18596;SDS011;9428;50.950;6.912;2023-09-19T15:12:17;4.10;;;1.15;;
18596;SDS011;9428;50.950;6.912;2023-09-19T15:15:05;2.30;;;1.20;;
18596;SDS011;9428;50.950;6.912;2023-09-19T15:17:53;5.32;;;1.20;;
18596;SDS011;9428;50.950;6.912;2023-09-19T15:20:43;4.32;;;1.40;;
18596;SDS011;9428;50.950;6.912;2023-09-19T15:23:31;4.93;;;1.20;;
18596;SDS011;9428;50.950;6.912;2023-09-19T15:26:19;4.45;;;1.10;;
18596;SDS011;9428;50.950;6.912;2023-09-19T15:29:07;3.72;;;1.85;;
18596;SDS011;9428;50.950;6.912;2023-09-19T15:31:55;3.67;;;1.00;;
18596;SDS011;9428;50.950;6.912;2023-09-19T15:34:44;3.17;;;1.00;;
18596;SDS011;9428;50.950;6.912;2023-09-19T15:37:35;5.70;;;1.13;;
18596;SDS011;9428;50.950;6.912;2023-09-19T15:40:22;3.10;;;1.02;;
18596;SDS011;9428;50.950;6.912;2023-09-19T15:43:09;4.40;;;1.25;;
18596;SDS011;9428;50.950;6.912;2023-09-19T15:45:57;6.78;;;1.38;;
18596;SDS011;9428;50.950;6.912;2023-09-19T15:48:48;1.83;;;1.05;;
18596;SDS011;9428;50.950;6.912;2023-09-19T15:51:35;2.35;;;1.20;;
18596;SDS011;9428;50.950;6.912;2023-09-19T15:54:24;3.38;;;1.30;;
18596;SDS011;9428;50.950;6.912;2023-09-19T15:57:13;3.03;;;1.25;;
18596;SDS011;9428;50.950;6.912;2023-09-19T16:00:00;2.67;;;1.20;;
18596;SDS011;9428;50.950;6.912;2023-09-19T16:02:49;5.55;;;1.30;;
18596;SDS011;9428;50.950;6.912;2023-09-19T16:05:37;3.33;;;1.20;;
18596;SDS011;9428;50.950;6.912;2023-09-19T16:08:24;3.08;;;1.00;;
18596;SDS011;9428;50.950;6.912;2023-09-19T16:11:14;1.65;;;0.80;;
18596;SDS011;9428;50.950;6.912;2023-09-19T16:14:03;2.75;;;1.05;;
18596;SDS011;9428;50.950;6.912;2023-09-19T16:16:51;2.88;;;0.80;;
18596;SDS011;9428;50.950;6.912;2023-09-19T16:19:40;2.80;;;1.23;;
18596;SDS011;9428;50.950;6.912;2023-09-19T16:22:30;1.92;;;1.00;;
18596;SDS011;9428;50.950;6.912;2023-09-19T16:25:19;3.28;;;1.10;;
18596;SDS011;9428;50.950;6.912;2023-09-19T16:28:08;3.20;;;1.00;;
18596;SDS011;9428;50.950;6.912;2023-09-19T16:30:58;7.95;;;1.85;;
18596;SDS011;9428;50.950;6.912;2023-09-19T16:33:47;3.25;;;1.10;;
18596;SDS011;9428;50.950;6.912;2023-09-19T16:36:34;2.90;;;0.95;;
18596;SDS011;9428;50.950;6.912;2023-09-19T16:39:22;3.50;;;1.48;;
18596;SDS011;9428;50.950;6.912;2023-09-19T16:42:11;4.88;;;1.65;;
18596;SDS011;9428;50.950;6.912;2023-09-19T16:45:03;5.32;;;1.42;;
18596;SDS011;9428;50.950;6.912;2023-09-19T16:47:50;2.42;;;1.10;;
18596;SDS011;9428;50.950;6.912;2023-09-19T16:50:39;3.38;;;1.65;;
18596;SDS011;9428;50.950;6.912;2023-09-19T16:53:28;4.82;;;1.77;;
18596;SDS011;9428;50.950;6.912;2023-09-19T16:56:20;3.47;;;1.38;;
18596;SDS011;9428;50.950;6.912;2023-09-19T16:59:07;2.88;;;1.30;;
18596;SDS011;9428;50.950;6.912;2023-09-19T17:01:59;6.72;;;1.63;;
18596;SDS011;9428;50.950;6.912;2023-09-19T17:04:47;11.90;;;1.42;;
18596;SDS011;9428;50.950;6.912;2023-09-19T17:07:36;2.63;;;1.30;;
18596;SDS011;9428;50.950;6.912;2023-09-19T17:10:24;5.15;;;1.27;;
18596;SDS011;9428;50.950;6.912;2023-09-19T17:13:11;2.78;;;1.25;;
18596;SDS011;9428;50.950;6.912;2023-09-19T17:16:00;5.72;;;1.40;;
18596;SDS011;9428;50.950;6.912;2023-09-19T17:18:52;12.10;;;1.77;;
18596;SDS011;9428;50.950;6.912;2023-09-19T17:21:40;3.88;;;1.65;;